Time;durP1;ratioP1;P1;durP2;ratioP2;P2;SDS_P1;SDS_P2;PMS_P1;PMS_P2;Temp;Humidity;BMP_temperature;BMP_pressure;BME280_temperature;BME280_humidity;BME280_pressure;Samples;Min_cycle;Max_cycle;Signal;HPM_P1;HPM_P2
2021/01/05 00:01:39;;;;;;;29.88;15.75;;;;;;;;;;5058407;28;20045;-85
2021/01/05 00:04:05;;;;;;;31.23;16.33;;;;;;;;;;5058614;28;20052;-85
2021/01/05 00:06:32;;;;;;;29.23;16.02;;;;;;;;;;5042388;28;20044;-85
2021/01/05 00:08:58;;;;;;;31.55;15.68;;;;;;;;;;5041167;28;20051;-85
2021/01/05 00:11:25;;;;;;;30.85;16.08;;;;;;;;;;5058845;28;20041;-84
2021/01/05 00:14:22;;;;;;;32.63;15.90;;;;;;;;;;5076555;28;20056;-84
2021/01/05 00:16:49;;;;;;;32.00;15.48;;;;;;;;;;5057952;28;20095;-84
2021/01/05 00:19:15;;;;;;;27.15;15.15;;;;;;;;;;5075697;28;20051;-85
2021/01/05 00:21:42;;;;;;;30.08;14.40;;;;;;;;;;5058180;28;20384;-84
2021/01/05 00:24:51;;;;;;;33.45;15.95;;;;;;;;;;5057801;28;20041;-85
2021/01/05 00:27:17;;;;;;;26.35;13.05;;;;;;;;;;5075926;28;20044;-84
2021/01/05 00:29:43;;;;;;;29.90;14.80;;;;;;;;;;5042015;28;20041;-85
2021/01/05 00:32:14;;;;;;;27.02;13.20;;;;;;;;;;5075700;28;20048;-85
2021/01/05 00:34:41;;;;;;;30.45;14.18;;;;;;;;;;5058222;28;20480;-85
2021/01/05 00:37:07;;;;;;;27.98;16.08;;;;;;;;;;5075456;28;20037;-85
2021/01/05 00:39:33;;;;;;;29.73;14.45;;;;;;;;;;5076140;28;20041;-85
2021/01/05 00:41:59;;;;;;;33.40;15.30;;;;;;;;;;5075503;28;20041;-85
2021/01/05 00:44:25;;;;;;;30.73;14.73;;;;;;;;;;5057343;28;20041;-85
2021/01/05 00:46:51;;;;;;;28.25;14.95;;;;;;;;;;5058337;28;20041;-84
2021/01/05 00:49:22;;;;;;;26.70;14.73;;;;;;;;;;5075365;28;20051;-84
2021/01/05 00:55:15;;;;;;;28.50;14.82;;;;;;;;;;5079053;28;20089;-85
2021/01/05 01:07:03;;;;;;;31.38;15.02;;;;;;;;;;5098865;28;20039;-85
2021/01/05 01:09:29;;;;;;;28.25;14.27;;;;;;;;;;5098821;28;20044;-85
2021/01/05 01:11:57;;;;;;;29.45;15.13;;;;;;;;;;5080870;28;20072;-86
2021/01/05 01:14:23;;;;;;;25.85;14.60;;;;;;;;;;5098643;28;20044;-85
2021/01/05 01:16:49;;;;;;;30.48;15.45;;;;;;;;;;5099269;28;20066;-84
2021/01/05 01:19:15;;;;;;;24.40;13.68;;;;;;;;;;5098786;28;20040;-84
2021/01/05 01:21:44;;;;;;;31.25;15.88;;;;;;;;;;5081374;28;20036;-85
2021/01/05 01:24:11;;;;;;;27.40;15.60;;;;;;;;;;5098913;28;20036;-84
2021/01/05 01:26:37;;;;;;;29.38;14.55;;;;;;;;;;5099039;28;20051;-84
2021/01/05 01:29:03;;;;;;;29.10;15.65;;;;;;;;;;5098693;28;20043;-84
2021/01/05 01:31:29;;;;;;;25.50;14.35;;;;;;;;;;5098943;28;20048;-84
2021/01/05 01:33:55;;;;;;;32.65;15.13;;;;;;;;;;5098883;28;20460;-84
2021/01/05 01:36:21;;;;;;;27.50;15.15;;;;;;;;;;5098485;28;20066;-84
2021/01/05 01:38:47;;;;;;;29.42;16.08;;;;;;;;;;5079718;28;20081;-84
2021/01/05 01:41:14;;;;;;;30.95;16.05;;;;;;;;;;5097352;28;20040;-84
2021/01/05 01:43:40;;;;;;;27.33;14.77;;;;;;;;;;5080444;28;20044;-84
2021/01/05 01:46:07;;;;;;;26.20;14.93;;;;;;;;;;5098558;28;20046;-84
2021/01/05 01:48:33;;;;;;;28.05;14.95;;;;;;;;;;5080827;28;20067;-84
2021/01/05 01:50:59;;;;;;;25.83;15.00;;;;;;;;;;5098794;28;20195;-84
2021/01/05 01:54:04;;;;;;;26.73;15.02;;;;;;;;;;5098946;28;20040;-85
2021/01/05 01:56:45;;;;;;;29.10;15.13;;;;;;;;;;5084681;28;20043;-84
2021/01/05 01:59:24;;;;;;;31.50;15.40;;;;;;;;;;5080233;28;20083;-84
2021/01/05 02:04:41;;;;;;;26.35;14.45;;;;;;;;;;5094414;28;20048;-85
2021/01/05 02:07:19;;;;;;;25.88;15.15;;;;;;;;;;5097500;28;20055;-86
2021/01/05 02:10:04;;;;;;;29.63;14.80;;;;;;;;;;5096817;28;20059;-85
2021/01/05 02:12:37;;;;;;;29.60;16.42;;;;;;;;;;5095982;28;20455;-86
2021/01/05 02:15:11;;;;;;;25.05;13.70;;;;;;;;;;5096565;28;20063;-86
2021/01/05 02:17:51;;;;;;;26.83;14.95;;;;;;;;;;5097491;28;20157;-86
2021/01/05 02:20:21;;;;;;;26.38;14.60;;;;;;;;;;5097496;28;20044;-86
2021/01/05 02:22:54;;;;;;;26.77;14.52;;;;;;;;;;5097359;28;20055;-86
2021/01/05 02:25:29;;;;;;;24.95;14.40;;;;;;;;;;5096817;28;20055;-85
2021/01/05 02:28:01;;;;;;;27.95;15.07;;;;;;;;;;5096136;28;20479;-86
2021/01/05 02:30:34;;;;;;;19.63;10.23;;;;;;;;;;5097252;28;20066;-86
2021/01/05 02:33:07;;;;;;;20.27;10.35;;;;;;;;;;5096903;28;20048;-86
2021/01/05 02:35:50;;;;;;;19.27;10.43;;;;;;;;;;5096210;28;20059;-87
2021/01/05 02:38:45;;;;;;;18.05;10.07;;;;;;;;;;5096282;28;20044;-86
2021/01/05 02:41:18;;;;;;;20.17;11.10;;;;;;;;;;5096485;28;20383;-87
2021/01/05 02:44:05;;;;;;;19.75;11.25;;;;;;;;;;5095876;28;20071;-87
2021/01/05 02:46:47;;;;;;;19.20;12.13;;;;;;;;;;5095981;28;20044;-86
2021/01/05 02:49:36;;;;;;;16.70;10.18;;;;;;;;;;5096076;28;20056;-86
2021/01/05 02:52:47;;;;;;;20.33;11.45;;;;;;;;;;5096125;28;20491;-87
2021/01/05 02:55:50;;;;;;;18.58;11.25;;;;;;;;;;5096153;28;20651;-86
2021/01/05 02:58:53;;;;;;;17.52;10.93;;;;;;;;;;5095438;28;20044;-86
2021/01/05 03:01:45;;;;;;;24.20;11.82;;;;;;;;;;5072567;28;20044;-86
2021/01/05 03:04:11;;;;;;;20.67;12.52;;;;;;;;;;5093882;28;20074;-87
2021/01/05 03:06:40;;;;;;;16.80;9.00;;;;;;;;;;5095562;28;20044;-87
2021/01/05 03:09:24;;;;;;;16.95;9.50;;;;;;;;;;5096353;28;20051;-86
2021/01/05 03:12:03;;;;;;;15.30;9.88;;;;;;;;;;5095578;28;20052;-87
2021/01/05 03:14:36;;;;;;;20.33;10.57;;;;;;;;;;5095376;28;20498;-87
2021/01/05 03:17:09;;;;;;;18.48;10.38;;;;;;;;;;5095951;28;20480;-87
2021/01/05 03:19:40;;;;;;;22.48;11.73;;;;;;;;;;5096055;28;20051;-86
2021/01/05 03:22:09;;;;;;;21.05;11.30;;;;;;;;;;5095878;28;20048;-87
2021/01/05 03:24:36;;;;;;;21.15;11.50;;;;;;;;;;5095873;28;20052;-86
2021/01/05 03:27:02;;;;;;;19.48;10.43;;;;;;;;;;5095069;28;20051;-87
2021/01/05 03:29:28;;;;;;;21.00;11.30;;;;;;;;;;5095933;28;20059;-87
2021/01/05 03:31:56;;;;;;;19.13;10.70;;;;;;;;;;5095010;28;20044;-87
2021/01/05 03:34:23;;;;;;;15.80;7.68;;;;;;;;;;5094821;28;20048;-87
2021/01/05 03:36:50;;;;;;;15.88;9.52;;;;;;;;;;5095306;28;20453;-87
2021/01/05 03:39:16;;;;;;;17.60;8.10;;;;;;;;;;5095099;28;20377;-87
2021/01/05 03:41:42;;;;;;;15.68;8.02;;;;;;;;;;5095149;28;20059;-87
2021/01/05 03:44:09;;;;;;;19.02;9.13;;;;;;;;;;5095039;28;20048;-86
2021/01/05 03:46:35;;;;;;;19.45;8.68;;;;;;;;;;5094977;28;20052;-87
2021/01/05 03:49:01;;;;;;;16.73;9.40;;;;;;;;;;5095174;28;20048;-86
2021/01/05 03:51:28;;;;;;;16.67;8.27;;;;;;;;;;5094490;28;20043;-86
2021/01/05 03:53:54;;;;;;;15.98;8.25;;;;;;;;;;5094855;28;20089;-86
2021/01/05 03:56:20;;;;;;;16.70;9.25;;;;;;;;;;5094659;28;20453;-86
2021/01/05 03:58:46;;;;;;;18.02;8.82;;;;;;;;;;5094920;28;20044;-87
2021/01/05 04:01:12;;;;;;;17.77;9.95;;;;;;;;;;5094806;28;20052;-86
2021/01/05 04:03:39;;;;;;;16.90;9.65;;;;;;;;;;5094444;28;20717;-86
2021/01/05 04:06:05;;;;;;;15.50;8.57;;;;;;;;;;5095382;28;20533;-87
2021/01/05 04:08:32;;;;;;;16.75;8.60;;;;;;;;;;5094460;28;20048;-86
2021/01/05 04:10:58;;;;;;;18.63;10.43;;;;;;;;;;5094500;28;20479;-86
2021/01/05 04:13:24;;;;;;;18.80;9.38;;;;;;;;;;5094009;28;20048;-86
2021/01/05 04:15:50;;;;;;;18.50;9.80;;;;;;;;;;5094495;28;20048;-86
2021/01/05 04:18:16;;;;;;;16.80;9.75;;;;;;;;;;5094019;28;20048;-86
2021/01/05 04:20:42;;;;;;;17.75;9.68;;;;;;;;;;5094489;28;20052;-87
2021/01/05 04:23:09;;;;;;;16.98;9.43;;;;;;;;;;5094264;28;20040;-86
2021/01/05 04:25:35;;;;;;;22.60;9.98;;;;;;;;;;5094631;28;20041;-87
2021/01/05 04:28:02;;;;;;;21.88;11.13;;;;;;;;;;5098137;28;20063;-87
2021/01/05 04:30:30;;;;;;;20.60;10.80;;;;;;;;;;5098438;28;20059;-87
2021/01/05 04:32:59;;;;;;;17.73;9.73;;;;;;;;;;5099676;28;20044;-86
2021/01/05 04:35:25;;;;;;;20.55;10.50;;;;;;;;;;5100069;28;20059;-86
2021/01/05 04:37:52;;;;;;;18.08;9.88;;;;;;;;;;5098376;28;20048;-87
2021/01/05 04:40:28;;;;;;;18.38;9.32;;;;;;;;;;5098527;28;20040;-86
2021/01/05 04:43:16;;;;;;;21.08;11.25;;;;;;;;;;5098413;28;20044;-86
2021/01/05 04:45:50;;;;;;;18.52;9.40;;;;;;;;;;5098536;28;20407;-87
2021/01/05 04:48:26;;;;;;;20.42;10.93;;;;;;;;;;5098203;28;20052;-87
2021/01/05 04:50:54;;;;;;;19.90;10.88;;;;;;;;;;5098278;28;20066;-86
2021/01/05 04:53:23;;;;;;;23.08;10.93;;;;;;;;;;5098272;28;20048;-86
2021/01/05 04:55:55;;;;;;;22.25;12.15;;;;;;;;;;5098122;28;20097;-86
2021/01/05 04:58:28;;;;;;;26.38;12.75;;;;;;;;;;5097999;28;20044;-86
2021/01/05 05:00:54;;;;;;;21.20;11.32;;;;;;;;;;5098229;28;20044;-86
2021/01/05 05:03:41;;;;;;;21.02;11.45;;;;;;;;;;5098029;28;20044;-87
2021/01/05 05:06:26;;;;;;;24.27;11.70;;;;;;;;;;5097902;28;20055;-87
2021/01/05 05:09:22;;;;;;;28.40;14.98;;;;;;;;;;5097602;28;20059;-87
2021/01/05 05:11:57;;;;;;;28.88;13.75;;;;;;;;;;5091028;28;20112;-86
2021/01/05 05:14:37;;;;;;;27.73;13.77;;;;;;;;;;5097553;28;20499;-86
2021/01/05 05:17:26;;;;;;;28.00;14.50;;;;;;;;;;5097275;28;20052;-87
2021/01/05 05:19:58;;;;;;;28.27;15.73;;;;;;;;;;5084487;28;20112;-86
2021/01/05 05:22:31;;;;;;;29.23;14.50;;;;;;;;;;5097494;28;20040;-87
2021/01/05 05:25:01;;;;;;;34.22;16.05;;;;;;;;;;5097670;28;20492;-87
2021/01/05 05:27:30;;;;;;;29.90;15.02;;;;;;;;;;5097490;28;20089;-86
2021/01/05 05:29:59;;;;;;;28.17;13.93;;;;;;;;;;5097569;28;20051;-87
2021/01/05 05:32:30;;;;;;;31.92;15.95;;;;;;;;;;5097566;28;20048;-86
2021/01/05 05:35:36;;;;;;;28.45;14.55;;;;;;;;;;5097078;28;20044;-87
2021/01/05 05:38:04;;;;;;;32.63;16.33;;;;;;;;;;5096649;28;20051;-86
2021/01/05 05:40:42;;;;;;;32.08;15.05;;;;;;;;;;5097369;28;20044;-86
2021/01/05 05:43:38;;;;;;;32.38;15.93;;;;;;;;;;5097183;28;20117;-86
2021/01/05 05:46:07;;;;;;;32.65;15.82;;;;;;;;;;5080163;28;20548;-87
2021/01/05 05:48:41;;;;;;;32.47;15.25;;;;;;;;;;5097133;28;20067;-86
2021/01/05 05:51:11;;;;;;;30.92;15.77;;;;;;;;;;5097477;28;20075;-86
2021/01/05 05:53:41;;;;;;;38.47;18.25;;;;;;;;;;5097333;28;20048;-86
2021/01/05 05:56:09;;;;;;;35.78;17.17;;;;;;;;;;5096787;28;20165;-86
2021/01/05 05:58:39;;;;;;;32.25;17.75;;;;;;;;;;5096780;28;20056;-87
2021/01/05 06:01:09;;;;;;;33.30;16.45;;;;;;;;;;5096933;28;20056;-86
2021/01/05 06:03:35;;;;;;;33.55;16.08;;;;;;;;;;5096987;28;20048;-86
2021/01/05 06:06:01;;;;;;;33.00;17.67;;;;;;;;;;5097415;28;20048;-86
2021/01/05 06:08:27;;;;;;;31.13;16.60;;;;;;;;;;5097728;28;20058;-87
2021/01/05 06:10:53;;;;;;;41.55;20.40;;;;;;;;;;5098161;28;20052;-87
2021/01/05 06:13:19;;;;;;;33.90;17.95;;;;;;;;;;5097891;28;20407;-86
2021/01/05 06:15:46;;;;;;;36.28;17.17;;;;;;;;;;5098412;28;20059;-86
2021/01/05 06:18:14;;;;;;;48.95;23.92;;;;;;;;;;5098343;28;20058;-87
2021/01/05 06:20:40;;;;;;;39.03;16.90;;;;;;;;;;5097466;28;20089;-87
2021/01/05 06:23:06;;;;;;;49.35;25.40;;;;;;;;;;5097290;28;20040;-86
2021/01/05 06:25:32;;;;;;;34.25;17.75;;;;;;;;;;5097457;28;20052;-87
2021/01/05 06:27:58;;;;;;;40.22;19.58;;;;;;;;;;5097903;28;20101;-86
2021/01/05 06:30:25;;;;;;;39.25;19.50;;;;;;;;;;5097438;28;20048;-86
2021/01/05 06:32:51;;;;;;;40.05;17.83;;;;;;;;;;5097127;28;20047;-87
2021/01/05 06:35:20;;;;;;;31.80;17.88;;;;;;;;;;5096472;28;20040;-88
2021/01/05 06:37:48;;;;;;;35.53;17.02;;;;;;;;;;5096942;28;20056;-87
2021/01/05 06:40:15;;;;;;;39.20;17.42;;;;;;;;;;5097081;28;20476;-87
2021/01/05 06:42:41;;;;;;;32.90;16.52;;;;;;;;;;5096439;28;20094;-87
2021/01/05 06:45:09;;;;;;;36.10;18.65;;;;;;;;;;5097156;28;20496;-87
2021/01/05 06:47:35;;;;;;;32.10;16.65;;;;;;;;;;5097119;28;20479;-87
2021/01/05 06:50:01;;;;;;;34.75;17.67;;;;;;;;;;5096810;28;20048;-86
2021/01/05 06:52:28;;;;;;;35.33;17.20;;;;;;;;;;5096916;28;20101;-87
2021/01/05 06:54:54;;;;;;;38.92;17.85;;;;;;;;;;5096866;28;20066;-87
2021/01/05 06:57:20;;;;;;;30.20;16.67;;;;;;;;;;5096615;28;20480;-87
2021/01/05 06:59:46;;;;;;;32.30;17.48;;;;;;;;;;5096529;28;20412;-87
2021/01/05 07:02:15;;;;;;;35.00;18.58;;;;;;;;;;5095808;28;20556;-87
2021/01/05 07:04:41;;;;;;;34.17;17.95;;;;;;;;;;5096751;28;20066;-86
2021/01/05 07:07:07;;;;;;;34.08;17.70;;;;;;;;;;5096062;28;20048;-86
2021/01/05 07:09:34;;;;;;;36.40;17.45;;;;;;;;;;5096556;28;20052;-86
2021/01/05 07:12:00;;;;;;;35.28;16.42;;;;;;;;;;5096832;28;20079;-87
2021/01/05 07:14:27;;;;;;;34.90;17.17;;;;;;;;;;5096561;28;20062;-87
2021/01/05 07:16:53;;;;;;;35.72;17.13;;;;;;;;;;5096229;28;20048;-88
2021/01/05 07:19:19;;;;;;;32.10;16.75;;;;;;;;;;5095737;28;20071;-88
2021/01/05 07:21:46;;;;;;;35.70;18.00;;;;;;;;;;5095977;28;20047;-87
2021/01/05 07:24:12;;;;;;;39.45;18.60;;;;;;;;;;5096062;28;20051;-87
2021/01/05 07:26:44;;;;;;;36.60;17.17;;;;;;;;;;5095975;28;20476;-87
2021/01/05 07:29:12;;;;;;;33.53;17.52;;;;;;;;;;5096047;28;20048;-87
2021/01/05 07:31:38;;;;;;;34.75;17.60;;;;;;;;;;5095071;28;20048;-88
2021/01/05 07:34:04;;;;;;;38.20;17.40;;;;;;;;;;5095337;28;20048;-86
2021/01/05 07:36:33;;;;;;;37.20;18.08;;;;;;;;;;5096271;28;20066;-87
2021/01/05 07:38:59;;;;;;;35.17;18.08;;;;;;;;;;5084878;28;20040;-86
2021/01/05 07:41:25;;;;;;;39.20;18.50;;;;;;;;;;5095238;28;20495;-86
2021/01/05 07:43:52;;;;;;;35.13;17.30;;;;;;;;;;5095644;28;20044;-87
2021/01/05 07:46:18;;;;;;;37.95;17.17;;;;;;;;;;5095563;28;20129;-86
2021/01/05 07:48:44;;;;;;;33.65;17.17;;;;;;;;;;5095396;28;20075;-86
2021/01/05 07:51:10;;;;;;;41.78;17.92;;;;;;;;;;5095256;28;20411;-86
2021/01/05 07:53:37;;;;;;;41.35;20.48;;;;;;;;;;5095526;28;20048;-87
2021/01/05 07:56:03;;;;;;;40.53;17.58;;;;;;;;;;5095491;28;20043;-87
2021/01/05 07:58:29;;;;;;;41.70;17.70;;;;;;;;;;5095342;28;20044;-87
2021/01/05 08:00:56;;;;;;;40.45;17.45;;;;;;;;;;5094502;28;20044;-88
2021/01/05 08:03:22;;;;;;;40.90;20.67;;;;;;;;;;5095043;28;20040;-87
2021/01/05 08:05:48;;;;;;;37.90;16.83;;;;;;;;;;5095449;28;20472;-87
2021/01/05 08:08:14;;;;;;;36.35;16.23;;;;;;;;;;5095677;28;20499;-87
2021/01/05 08:10:40;;;;;;;32.63;16.15;;;;;;;;;;5095476;28;20063;-87
2021/01/05 08:13:08;;;;;;;37.35;17.27;;;;;;;;;;5096178;28;20040;-88
2021/01/05 08:15:35;;;;;;;38.90;16.58;;;;;;;;;;5096310;28;20056;-87
2021/01/05 08:18:02;;;;;;;31.77;15.65;;;;;;;;;;5095771;28;20536;-87
2021/01/05 08:20:30;;;;;;;30.00;14.93;;;;;;;;;;5096042;28;20059;-87
2021/01/05 08:22:57;;;;;;;36.75;17.00;;;;;;;;;;5095514;28;20040;-86
2021/01/05 08:25:23;;;;;;;31.15;15.73;;;;;;;;;;5095320;28;20048;-87
2021/01/05 08:27:50;;;;;;;35.90;16.65;;;;;;;;;;5095294;28;20488;-87
2021/01/05 08:30:19;;;;;;;35.72;16.33;;;;;;;;;;5096343;28;20063;-87
2021/01/05 08:32:45;;;;;;;33.78;15.98;;;;;;;;;;5095479;28;20044;-87
2021/01/05 08:35:12;;;;;;;39.75;18.17;;;;;;;;;;5095488;28;20075;-87
2021/01/05 08:37:39;;;;;;;33.35;15.60;;;;;;;;;;5094552;28;20048;-88
2021/01/05 08:40:08;;;;;;;34.78;15.77;;;;;;;;;;5094895;28;20093;-88
2021/01/05 08:42:34;;;;;;;34.22;15.27;;;;;;;;;;5095943;28;20044;-87
2021/01/05 08:45:00;;;;;;;31.67;17.33;;;;;;;;;;5095022;28;20094;-87
2021/01/05 08:47:26;;;;;;;36.38;16.88;;;;;;;;;;5094816;28;20400;-86
2021/01/05 08:49:52;;;;;;;37.17;16.83;;;;;;;;;;5094496;28;20048;-87
2021/01/05 08:52:19;;;;;;;33.80;14.95;;;;;;;;;;5094293;28;20070;-87
2021/01/05 08:54:45;;;;;;;30.90;14.55;;;;;;;;;;5094375;28;20055;-86
2021/01/05 08:57:13;;;;;;;31.73;14.15;;;;;;;;;;5094238;28;20484;-86
2021/01/05 08:59:39;;;;;;;32.65;15.90;;;;;;;;;;5094667;28;20472;-86
2021/01/05 09:02:06;;;;;;;31.92;15.45;;;;;;;;;;5091581;28;20074;-87
2021/01/05 09:04:32;;;;;;;32.95;16.42;;;;;;;;;;5082077;28;20481;-85
2021/01/05 09:06:58;;;;;;;35.17;17.27;;;;;;;;;;5095359;28;20044;-86
2021/01/05 09:09:25;;;;;;;34.00;15.20;;;;;;;;;;5094756;28;20055;-87
2021/01/05 09:11:52;;;;;;;33.03;15.57;;;;;;;;;;5094234;28;20052;-87
2021/01/05 09:14:18;;;;;;;29.20;15.27;;;;;;;;;;5096112;28;20043;-86
2021/01/05 09:16:44;;;;;;;34.35;15.63;;;;;;;;;;5097591;28;20082;-87
2021/01/05 09:19:09;;;;;;;38.55;18.45;;;;;;;;;;5097012;28;20089;-87
2021/01/05 09:21:35;;;;;;;37.05;17.15;;;;;;;;;;5097373;28;20044;-87
2021/01/05 09:24:02;;;;;;;39.05;17.70;;;;;;;;;;5097967;28;20083;-87
2021/01/05 09:26:31;;;;;;;38.05;15.25;;;;;;;;;;5097865;28;20056;-86
2021/01/05 09:28:57;;;;;;;34.10;17.25;;;;;;;;;;5097766;28;20048;-87
2021/01/05 09:31:23;;;;;;;33.30;15.80;;;;;;;;;;5097614;28;20059;-86
2021/01/05 09:33:50;;;;;;;37.67;15.48;;;;;;;;;;5097905;28;20052;-87
2021/01/05 09:36:19;;;;;;;31.83;15.45;;;;;;;;;;5098763;28;20048;-86
2021/01/05 09:38:46;;;;;;;34.17;15.88;;;;;;;;;;5098642;28;20048;-86
2021/01/05 09:41:22;;;;;;;33.13;16.08;;;;;;;;;;5099157;28;20404;-85
2021/01/05 09:43:49;;;;;;;32.35;15.45;;;;;;;;;;5098735;28;20048;-85
2021/01/05 09:46:15;;;;;;;31.13;14.82;;;;;;;;;;5098716;28;20415;-86
2021/01/05 09:48:41;;;;;;;31.10;14.88;;;;;;;;;;5098642;28;20096;-86
2021/01/05 09:51:08;;;;;;;30.80;16.17;;;;;;;;;;5098192;28;20553;-85
2021/01/05 09:53:34;;;;;;;37.95;16.00;;;;;;;;;;5098621;28;20044;-85
2021/01/05 09:56:00;;;;;;;34.80;17.50;;;;;;;;;;5098398;28;20048;-86
2021/01/05 09:58:26;;;;;;;33.78;17.17;;;;;;;;;;5098891;28;20051;-86
2021/01/05 10:00:54;;;;;;;36.58;14.82;;;;;;;;;;5097701;28;20048;-86
2021/01/05 10:03:32;;;;;;;31.25;15.52;;;;;;;;;;5097343;28;20113;-88
2021/01/05 10:05:58;;;;;;;27.98;13.77;;;;;;;;;;5097508;28;20048;-86
2021/01/05 10:08:23;;;;;;;26.80;13.80;;;;;;;;;;5097675;28;20056;-86
2021/01/05 10:10:50;;;;;;;23.83;12.48;;;;;;;;;;5097755;28;20048;-86
2021/01/05 10:13:16;;;;;;;23.30;12.60;;;;;;;;;;5097702;28;20040;-86
2021/01/05 10:15:48;;;;;;;41.80;20.75;;;;;;;;;;5088632;28;20076;-86
2021/01/05 11:23:11;;;;;;;22.00;11.00;;;;;;;;;;5037990;28;20042;-84
2021/01/05 11:25:37;;;;;;;27.85;13.38;;;;;;;;;;5004407;28;20103;-85
2021/01/05 11:28:04;;;;;;;20.52;10.95;;;;;;;;;;5037972;28;20051;-85
2021/01/05 11:30:31;;;;;;;25.75;12.55;;;;;;;;;;5020829;28;20138;-85
2021/01/05 11:32:57;;;;;;;24.83;11.48;;;;;;;;;;5038364;28;20048;-84
2021/01/05 11:35:23;;;;;;;21.80;10.50;;;;;;;;;;5021504;28;20124;-84
2021/01/05 11:37:51;;;;;;;24.13;11.50;;;;;;;;;;5039084;28;20359;-83
2021/01/05 11:40:19;;;;;;;19.73;11.15;;;;;;;;;;5021347;28;20041;-84
2021/01/05 11:42:45;;;;;;;18.90;9.65;;;;;;;;;;5021751;28;20065;-83
2021/01/05 11:45:13;;;;;;;22.23;11.73;;;;;;;;;;5020690;28;20045;-84
2021/01/05 11:47:39;;;;;;;22.55;11.38;;;;;;;;;;5037422;28;20050;-86
2021/01/05 12:03:32;;;;;;;22.55;11.30;;;;;;;;;;811263;22;20299;-84
2021/01/05 13:34:23;;;;;;;27.50;13.82;;;;;;;;;;6068676;22;5754125;-88
2021/01/05 13:36:50;;;;;;;31.45;14.48;;;;;;;;;;6289205;22;20031;-88
2021/01/05 13:42:18;;;;;;;29.13;14.65;;;;;;;;;;6259603;22;20052;-87
2021/01/05 13:50:30;;;;;;;30.00;15.10;;;;;;;;;;6139971;23;20085;-86
2021/01/05 13:53:29;;;;;;;28.42;15.48;;;;;;;;;;6139657;23;20104;-86
2021/01/05 13:56:07;;;;;;;28.05;13.43;;;;;;;;;;6139425;23;20026;-86
2021/01/05 14:37:26;;;;;;;29.80;15.32;;;;;;;;;;6254565;22;20028;-86
2021/01/05 14:49:00;;;;;;;39.03;20.02;;;;;;;;;;6252495;22;20461;-88
2021/01/05 14:51:28;;;;;;;32.10;16.85;;;;;;;;;;6222131;23;20016;-87
2021/01/05 14:53:55;;;;;;;31.10;16.77;;;;;;;;;;6221216;23;20017;-86
2021/01/05 14:56:22;;;;;;;35.88;16.88;;;;;;;;;;6223039;23;20019;-87
2021/01/05 14:58:51;;;;;;;39.58;21.95;;;;;;;;;;6195989;23;20095;-87
2021/01/05 15:01:18;;;;;;;54.47;28.75;;;;;;;;;;6221631;23;20103;-87
2021/01/05 15:03:45;;;;;;;49.13;27.75;;;;;;;;;;6221347;23;20500;-88
2021/01/05 15:06:17;;;;;;;39.28;19.70;;;;;;;;;;6221521;23;20013;-86
2021/01/05 15:08:45;;;;;;;33.92;18.58;;;;;;;;;;6221676;23;20013;-87
2021/01/05 15:11:13;;;;;;;37.03;19.42;;;;;;;;;;6221197;23;20016;-89
2021/01/05 15:13:40;;;;;;;39.25;20.75;;;;;;;;;;6196292;23;20380;-86
2021/01/05 15:16:06;;;;;;;41.22;20.30;;;;;;;;;;6222836;23;20055;-87
2021/01/05 15:18:32;;;;;;;36.47;19.33;;;;;;;;;;6221248;23;20034;-86
2021/01/05 15:20:58;;;;;;;41.25;20.38;;;;;;;;;;6222348;23;20068;-86
2021/01/05 15:23:24;;;;;;;39.00;18.55;;;;;;;;;;6220552;23;20012;-87
2021/01/05 15:25:51;;;;;;;35.30;18.95;;;;;;;;;;6170149;23;20091;-87
2021/01/05 15:28:17;;;;;;;36.90;17.65;;;;;;;;;;6195012;23;20013;-87
2021/01/05 15:30:44;;;;;;;32.22;15.75;;;;;;;;;;6234562;23;20016;-87
2021/01/05 15:33:10;;;;;;;33.50;17.10;;;;;;;;;;6211371;23;20047;-86
2021/01/05 15:35:38;;;;;;;29.00;14.48;;;;;;;;;;6236779;23;20040;-87
2021/01/05 15:38:06;;;;;;;36.72;17.38;;;;;;;;;;6226619;23;20027;-87
2021/01/05 15:40:32;;;;;;;39.10;19.20;;;;;;;;;;6175306;23;20298;-87
2021/01/05 15:42:58;;;;;;;35.58;17.67;;;;;;;;;;6195094;23;20020;-87
2021/01/05 15:45:24;;;;;;;33.85;16.13;;;;;;;;;;6220153;23;20142;-87
2021/01/05 15:47:51;;;;;;;37.78;20.02;;;;;;;;;;6196219;23;20016;-87
2021/01/05 15:50:18;;;;;;;37.60;18.67;;;;;;;;;;6205312;23;20012;-87
2021/01/05 15:52:44;;;;;;;34.53;17.90;;;;;;;;;;6220755;23;20090;-86
2021/01/05 15:55:11;;;;;;;34.80;17.75;;;;;;;;;;6219601;23;20087;-86
2021/01/05 15:57:37;;;;;;;34.00;16.70;;;;;;;;;;6220918;23;20015;-86
2021/01/05 16:00:06;;;;;;;30.67;14.68;;;;;;;;;;6219493;23;20022;-86
2021/01/05 16:02:32;;;;;;;27.25;14.05;;;;;;;;;;6218455;23;20019;-86
2021/01/05 16:04:59;;;;;;;31.63;14.13;;;;;;;;;;6219499;23;20016;-86
2021/01/05 16:07:25;;;;;;;34.45;15.63;;;;;;;;;;6219233;23;20464;-86
2021/01/05 16:09:51;;;;;;;37.85;16.85;;;;;;;;;;6219267;23;20016;-86
2021/01/05 16:12:18;;;;;;;37.35;16.02;;;;;;;;;;6219690;23;20020;-86
2021/01/05 16:14:44;;;;;;;33.92;16.10;;;;;;;;;;6222279;23;20063;-86
2021/01/05 16:17:10;;;;;;;36.80;18.05;;;;;;;;;;6218912;23;20016;-86
2021/01/05 16:19:36;;;;;;;37.10;17.83;;;;;;;;;;6194321;23;20020;-86
2021/01/05 16:22:03;;;;;;;37.75;18.77;;;;;;;;;;6218991;23;20012;-87
2021/01/05 16:24:30;;;;;;;31.65;14.90;;;;;;;;;;6219288;23;20501;-86
2021/01/05 16:26:59;;;;;;;29.65;15.23;;;;;;;;;;6220433;23;20135;-87
2021/01/05 16:29:25;;;;;;;34.83;17.60;;;;;;;;;;6220865;23;20134;-86
2021/01/05 16:31:53;;;;;;;33.92;16.00;;;;;;;;;;6221164;23;20026;-86
2021/01/05 16:34:19;;;;;;;35.78;16.27;;;;;;;;;;6221612;23;20016;-86
2021/01/05 16:36:46;;;;;;;37.22;17.30;;;;;;;;;;6219194;23;20021;-86
2021/01/05 16:39:13;;;;;;;33.05;16.25;;;;;;;;;;6217217;23;20437;-86
2021/01/05 16:41:40;;;;;;;37.33;18.55;;;;;;;;;;6219506;23;20021;-86
2021/01/05 16:44:07;;;;;;;41.35;16.42;;;;;;;;;;6220997;23;20088;-86
2021/01/05 16:46:37;;;;;;;35.08;16.77;;;;;;;;;;6220658;23;20023;-86
2021/01/05 16:49:03;;;;;;;37.53;16.23;;;;;;;;;;6220902;23;20020;-87
2021/01/05 16:51:30;;;;;;;34.55;15.90;;;;;;;;;;6220236;23;20391;-86
2021/01/05 16:53:56;;;;;;;31.58;17.33;;;;;;;;;;6220153;23;20021;-86
2021/01/05 16:56:24;;;;;;;32.75;15.90;;;;;;;;;;6219908;23;20045;-86
2021/01/05 16:58:52;;;;;;;38.13;16.85;;;;;;;;;;6219234;23;20066;-88
2021/01/05 17:01:18;;;;;;;35.42;17.33;;;;;;;;;;6219394;23;20480;-86
2021/01/05 17:03:45;;;;;;;35.65;16.58;;;;;;;;;;6193876;23;20052;-85
2021/01/05 17:06:12;;;;;;;35.90;16.42;;;;;;;;;;6191457;23;20043;-86
2021/01/05 17:08:39;;;;;;;32.15;14.85;;;;;;;;;;6193232;23;20013;-85
2021/01/05 17:11:05;;;;;;;35.08;16.63;;;;;;;;;;6219745;23;20317;-86
2021/01/05 17:13:32;;;;;;;29.20;14.60;;;;;;;;;;6169222;23;20023;-86
2021/01/05 17:15:58;;;;;;;32.20;14.77;;;;;;;;;;6193925;23;20154;-86
2021/01/05 17:18:24;;;;;;;37.08;16.88;;;;;;;;;;6193721;23;20016;-86
2021/01/05 17:20:50;;;;;;;34.78;14.93;;;;;;;;;;6219210;23;20019;-86
2021/01/05 17:23:17;;;;;;;29.40;14.38;;;;;;;;;;6220062;23;20422;-86
2021/01/05 17:25:46;;;;;;;34.83;14.90;;;;;;;;;;6193583;23;20317;-86
2021/01/05 17:28:12;;;;;;;32.20;15.90;;;;;;;;;;6219812;23;20012;-86
2021/01/05 17:30:39;;;;;;;34.08;16.38;;;;;;;;;;6217833;23;20062;-86
2021/01/05 17:33:07;;;;;;;33.90;16.00;;;;;;;;;;6193193;23;20017;-86
2021/01/05 17:35:35;;;;;;;35.72;16.23;;;;;;;;;;6193853;23;20039;-86
2021/01/05 17:38:03;;;;;;;38.00;18.55;;;;;;;;;;6219955;23;20008;-86
2021/01/05 17:40:31;;;;;;;35.05;16.98;;;;;;;;;;6220873;23;20047;-86
2021/01/05 17:42:57;;;;;;;36.42;17.73;;;;;;;;;;6194199;23;20023;-86
2021/01/05 17:45:26;;;;;;;32.72;15.30;;;;;;;;;;6220037;23;20067;-85
2021/01/05 17:47:54;;;;;;;31.05;15.13;;;;;;;;;;6193726;23;20020;-85
2021/01/05 17:50:21;;;;;;;37.22;16.10;;;;;;;;;;6206102;23;20313;-85
2021/01/05 17:52:49;;;;;;;36.65;16.98;;;;;;;;;;6220036;23;20016;-86
2021/01/05 17:55:18;;;;;;;32.35;13.70;;;;;;;;;;6218523;23;20016;-85
2021/01/05 17:57:44;;;;;;;33.60;15.93;;;;;;;;;;6220014;23;20298;-86
2021/01/05 18:00:12;;;;;;;31.65;15.27;;;;;;;;;;6218344;23;20019;-86
2021/01/05 18:02:38;;;;;;;30.20;14.40;;;;;;;;;;6218500;23;20326;-86
2021/01/05 18:05:06;;;;;;;39.63;17.13;;;;;;;;;;6220369;23;20456;-86
2021/01/05 18:07:35;;;;;;;38.53;17.73;;;;;;;;;;6220160;23;20027;-86
2021/01/05 18:10:01;;;;;;;37.75;16.60;;;;;;;;;;6220834;23;20044;-86
2021/01/05 18:12:31;;;;;;;35.13;18.38;;;;;;;;;;6221586;23;20418;-86
2021/01/05 18:14:57;;;;;;;37.67;16.98;;;;;;;;;;6197557;23;20017;-86
2021/01/05 18:17:24;;;;;;;37.25;16.20;;;;;;;;;;6220577;23;20028;-86
2021/01/05 18:19:50;;;;;;;35.78;16.58;;;;;;;;;;6195723;23;20020;-86
2021/01/05 18:22:17;;;;;;;33.55;16.13;;;;;;;;;;6220454;23;20479;-86
2021/01/05 18:24:43;;;;;;;35.30;16.00;;;;;;;;;;6221546;23;20012;-86
2021/01/05 18:27:10;;;;;;;37.15;16.48;;;;;;;;;;6221238;23;20016;-86
2021/01/05 18:29:36;;;;;;;39.50;19.08;;;;;;;;;;6219761;23;20013;-86